Time;durP1;ratioP1;P1;durP2;ratioP2;P2;SDS_P1;SDS_P2;PMS_P1;PMS_P2;Temp;Humidity;BMP_temperature;BMP_pressure;BME280_temperature;BME280_humidity;BME280_pressure;Samples;Min_cycle;Max_cycle;Signal;HPM_P1;HPM_P2
2023/06/03 04:02:49;;;;;;;1.37;1.27;;;7.90;95.10;;;;;;4944449;23;20871;-87
2023/06/03 04:05:16;;;;;;;1.57;1.47;;;8.00;95.10;;;;;;4933266;29;20428;-90
2023/06/03 04:07:43;;;;;;;1.10;1.00;;;8.00;95.00;;;;;;4924703;29;20951;-88
2023/06/03 04:10:09;;;;;;;2.67;1.33;;;8.00;94.70;;;;;;4929680;29;20439;-88
2023/06/03 04:12:36;;;;;;;1.10;1.00;;;8.00;94.70;;;;;;4922632;29;20443;-88
2023/06/03 04:15:02;;;;;;;1.27;1.17;;;8.10;94.60;;;;;;4930037;29;20176;-89
2023/06/03 04:17:28;;;;;;;1.43;1.33;;;8.10;94.50;;;;;;4930254;29;20800;-88
2023/06/03 04:19:55;;;;;;;1.53;1.43;;;8.10;94.40;;;;;;4924405;29;20439;-87
2023/06/03 04:22:23;;;;;;;1.60;1.50;;;8.20;94.40;;;;;;4926343;29;20203;-88
2023/06/03 04:25:00;;;;;;;2.20;1.43;;;8.20;94.50;;;;;;4925299;29;20588;-87
2023/06/03 04:27:25;;;;;;;1.47;1.37;;;8.30;94.40;;;;;;4931877;29;20859;-88
2023/06/03 04:29:51;;;;;;;1.10;1.00;;;8.30;94.30;;;;;;4932891;29;20428;-88
2023/06/03 04:32:17;;;;;;;1.37;1.23;;;8.40;94.30;;;;;;4924668;29;20444;-86
2023/06/03 04:34:55;;;;;;;1.17;1.10;;;8.40;94.10;;;;;;4924099;29;20722;-87
2023/06/03 04:37:22;;;;;;;2.00;1.80;;;8.40;93.90;;;;;;4926539;29;20247;-89
2023/06/03 04:39:48;;;;;;;1.20;1.10;;;8.50;93.90;;;;;;4932233;29;20715;-86
2023/06/03 04:42:15;;;;;;;1.40;1.30;;;8.60;94.40;;;;;;4924670;29;20444;-86
2023/06/03 04:44:42;;;;;;;1.53;1.43;;;8.60;94.40;;;;;;4927665;29;20419;-86
2023/06/03 04:47:10;;;;;;;1.20;1.10;;;8.70;94.40;;;;;;4925192;29;20450;-86
2023/06/03 04:49:38;;;;;;;1.20;1.10;;;8.70;94.40;;;;;;4924556;29;20554;-87
2023/06/03 04:52:05;;;;;;;1.10;1.00;;;8.80;94.40;;;;;;4919292;29;20448;-89
2023/06/03 04:54:30;;;;;;;1.10;1.00;;;8.80;94.40;;;;;;4929022;29;20427;-87
2023/06/03 04:56:57;;;;;;;1.30;1.20;;;8.90;94.40;;;;;;4931893;29;20949;-88
2023/06/03 04:59:22;;;;;;;5.50;1.47;;;8.90;94.40;;;;;;4928364;29;20184;-88
2023/06/03 05:01:48;;;;;;;1.00;0.90;;;8.90;94.20;;;;;;4918808;29;20491;-88
2023/06/03 05:04:19;;;;;;;1.40;1.30;;;9.00;93.90;;;;;;4921551;29;20191;-89
2023/06/03 05:06:45;;;;;;;1.10;1.00;;;9.00;93.90;;;;;;4932455;29;20817;-88
2023/06/03 05:09:11;;;;;;;3.07;1.50;;;9.10;93.70;;;;;;4931428;29;20458;-88
2023/06/03 05:11:37;;;;;;;1.00;0.90;;;9.10;93.50;;;;;;4931014;29;20428;-88
2023/06/03 05:14:02;;;;;;;13.53;1.63;;;9.10;93.50;;;;;;4927482;29;20437;-88
2023/06/03 05:16:28;;;;;;;1.07;1.03;;;9.20;93.40;;;;;;4926795;29;20561;-88
2023/06/03 05:18:53;;;;;;;1.10;1.00;;;9.20;93.30;;;;;;4932838;29;20183;-88
2023/06/03 05:21:19;;;;;;;9.47;1.50;;;9.30;93.40;;;;;;4931057;29;20207;-88
2023/06/03 05:23:45;;;;;;;1.10;1.00;;;9.30;93.10;;;;;;4931398;29;20180;-87
2023/06/03 05:26:11;;;;;;;1.40;1.30;;;9.40;93.10;;;;;;4924054;29;20180;-87
2023/06/03 05:28:36;;;;;;;2.70;1.50;;;9.40;93.10;;;;;;4929277;29;20475;-88
2023/06/03 05:31:02;;;;;;;1.50;1.50;;;9.50;93.20;;;;;;4927272;29;20204;-87
2023/06/03 05:33:32;;;;;;;5.17;1.70;;;9.50;93.10;;;;;;4918594;29;20176;-86
2023/06/03 05:35:58;;;;;;;1.20;1.10;;;9.60;93.00;;;;;;4931431;29;20188;-85
2023/06/03 05:38:24;;;;;;;1.10;1.00;;;9.60;93.10;;;;;;4931987;29;20427;-88
2023/06/03 05:40:51;;;;;;;1.30;1.20;;;9.70;93.00;;;;;;4919856;29;20295;-87
2023/06/03 05:43:16;;;;;;;1.40;1.30;;;9.70;92.80;;;;;;4925607;29;20511;-89
2023/06/03 05:45:42;;;;;;;1.10;1.00;;;9.80;92.40;;;;;;4930956;29;20791;-87
2023/06/03 05:48:08;;;;;;;30.67;1.53;;;9.80;92.20;;;;;;4922952;29;20212;-86
2023/06/03 05:50:40;;;;;;;1.40;1.30;;;9.90;92.50;;;;;;4927827;29;20472;-89
2023/06/03 05:53:05;;;;;;;1.37;1.27;;;9.90;91.90;;;;;;4929674;29;20431;-88
2023/06/03 05:55:31;;;;;;;1.77;1.67;;;10.00;92.00;;;;;;4931725;29;20424;-88
2023/06/03 05:58:00;;;;;;;1.40;1.20;;;10.10;92.20;;;;;;4929819;29;20186;-89
2023/06/03 06:00:28;;;;;;;1.00;0.90;;;10.10;92.50;;;;;;4929468;29;20538;-89
2023/06/03 06:02:56;;;;;;;1.17;1.07;;;10.20;92.40;;;;;;4919271;29;20423;-90
2023/06/03 06:05:21;;;;;;;1.30;1.20;;;10.30;92.20;;;;;;4926883;29;20462;-92
2023/06/03 06:07:50;;;;;;;4.27;2.10;;;10.30;92.20;;;;;;4918595;29;20433;-90
2023/06/03 06:10:18;;;;;;;1.47;1.37;;;10.40;91.80;;;;;;4923309;29;20193;-91
2023/06/03 06:12:44;;;;;;;1.53;1.30;;;10.40;91.70;;;;;;4920776;29;20456;-90
2023/06/03 06:15:10;;;;;;;1.40;1.30;;;10.50;91.70;;;;;;4934837;29;20954;-89
2023/06/03 06:17:35;;;;;;;1.00;0.90;;;10.60;91.70;;;;;;4932204;29;20229;-89
2023/06/03 06:20:02;;;;;;;2.17;2.03;;;10.70;91.40;;;;;;4923030;29;20420;-90
2023/06/03 06:22:28;;;;;;;1.40;1.30;;;10.70;91.10;;;;;;4929012;29;20224;-91
2023/06/03 06:24:53;;;;;;;1.37;1.37;;;10.80;91.30;;;;;;4933955;29;20427;-89
2023/06/03 06:27:19;;;;;;;1.43;1.33;;;10.90;91.50;;;;;;4922688;29;20195;-90
2023/06/03 06:29:50;;;;;;;1.20;1.10;;;10.90;91.20;;;;;;4933718;29;20203;-90
2023/06/03 06:32:30;;;;;;;2.20;1.20;;;11.00;91.10;;;;;;4930415;29;20206;-89
2023/06/03 06:35:00;;;;;;;1.97;1.30;;;11.00;90.90;;;;;;4926243;29;20427;-88
2023/06/03 06:37:28;;;;;;;1.27;1.17;;;11.10;91.00;;;;;;4929309;29;20416;-91
2023/06/03 06:40:08;;;;;;;1.10;1.00;;;11.20;90.80;;;;;;4922383;29;20432;-88
2023/06/03 06:42:42;;;;;;;1.67;1.57;;;11.20;90.70;;;;;;4923640;29;20511;-90
2023/06/03 06:45:23;;;;;;;1.00;0.90;;;11.30;90.60;;;;;;4927907;29;20436;-88
2023/06/03 06:47:49;;;;;;;1.20;1.10;;;11.30;90.80;;;;;;4932954;29;20420;-89
2023/06/03 06:50:46;;;;;;;1.10;1.00;;;11.50;91.00;;;;;;4933967;29;20514;-89
2023/06/03 06:53:14;;;;;;;1.53;1.43;;;11.50;90.70;;;;;;4915484;29;20268;-87
2023/06/03 06:56:02;;;;;;;1.37;1.27;;;11.60;90.70;;;;;;4918708;29;20432;-90
2023/06/03 06:58:38;;;;;;;1.10;1.00;;;11.80;90.50;;;;;;4925409;29;20438;-89
2023/06/03 07:01:05;;;;;;;1.30;1.20;;;11.90;90.50;;;;;;4922050;29;20476;-87
2023/06/03 07:03:32;;;;;;;1.20;1.10;;;12.00;90.10;;;;;;4922858;29;20431;-89
2023/06/03 07:05:57;;;;;;;1.30;1.20;;;12.10;90.00;;;;;;4918398;29;20424;-90
2023/06/03 07:08:24;;;;;;;1.37;1.33;;;12.20;90.10;;;;;;4949545;29;20522;-89
2023/06/03 07:10:59;;;;;;;1.00;0.90;;;12.30;90.00;;;;;;4951870;29;20196;-90
2023/06/03 07:13:25;;;;;;;4.10;1.57;;;12.50;89.80;;;;;;4949591;29;20436;-89
2023/06/03 07:15:51;;;;;;;6.03;2.10;;;12.60;89.70;;;;;;4930918;29;20847;-87
2023/06/03 07:18:18;;;;;;;1.33;1.23;;;12.70;89.30;;;;;;4923579;29;20495;-88
2023/06/03 07:20:46;;;;;;;7.93;1.50;;;12.80;89.10;;;;;;4914894;29;20246;-87
2023/06/03 07:23:16;;;;;;;2.33;1.60;;;12.90;87.80;;;;;;4924827;29;20435;-87
2023/06/03 07:25:50;;;;;;;1.57;1.47;;;12.90;87.90;;;;;;4924663;29;20510;-89
2023/06/03 07:28:18;;;;;;;1.23;1.13;;;13.00;87.90;;;;;;4922912;29;20799;-90
2023/06/03 07:30:45;;;;;;;2.30;1.47;;;13.10;88.30;;;;;;4922119;29;20453;-88
2023/06/03 07:33:33;;;;;;;1.53;1.43;;;13.10;88.50;;;;;;4928216;29;20478;-89
2023/06/03 07:36:01;;;;;;;9.70;1.70;;;13.30;88.20;;;;;;4926807;29;20428;-87
2023/06/03 07:39:03;;;;;;;2.60;1.63;;;13.40;88.00;;;;;;4924089;29;20432;-86
2023/06/03 07:41:43;;;;;;;1.90;1.17;;;13.50;87.70;;;;;;4932416;29;21060;-88
2023/06/03 07:44:14;;;;;;;1.50;1.27;;;13.60;87.80;;;;;;4934012;29;20451;-89
2023/06/03 07:46:57;;;;;;;1.73;1.20;;;13.80;88.00;;;;;;4934268;29;20447;-89
2023/06/03 07:49:23;;;;;;;1.30;1.20;;;13.90;87.60;;;;;;4926003;29;20992;-88
2023/06/03 07:51:50;;;;;;;2.33;1.20;;;14.00;86.90;;;;;;4935872;29;20444;-81
2023/06/03 07:54:17;;;;;;;1.10;1.00;;;14.10;87.00;;;;;;4929020;29;20459;-83
2023/06/03 07:56:46;;;;;;;4.10;1.50;;;14.10;86.70;;;;;;4932889;29;20902;-86
2023/06/03 07:59:13;;;;;;;1.43;1.33;;;14.20;86.90;;;;;;4938649;29;20424;-85
2023/06/03 08:01:39;;;;;;;1.70;1.60;;;14.40;86.50;;;;;;4937240;29;20487;-85
2023/06/03 08:04:24;;;;;;;1.57;1.47;;;14.50;86.00;;;;;;4939628;29;20438;-85
2023/06/03 08:06:52;;;;;;;2.13;1.57;;;14.50;85.80;;;;;;4930523;29;20502;-87
2023/06/03 08:09:30;;;;;;;2.33;2.17;;;14.60;85.60;;;;;;4934097;29;20538;-86
2023/06/03 08:12:00;;;;;;;1.90;1.30;;;14.70;85.40;;;;;;4939872;29;20601;-87
2023/06/03 08:14:26;;;;;;;2.07;1.93;;;14.80;85.60;;;;;;4948142;29;20419;-87
2023/06/03 08:16:53;;;;;;;1.23;1.13;;;15.00;85.00;;;;;;4930800;29;20432;-88
2023/06/03 08:19:18;;;;;;;2.53;2.33;;;15.10;85.40;;;;;;4931546;29;20434;-87
2023/06/03 08:21:44;;;;;;;1.57;1.50;;;15.20;85.10;;;;;;4924418;29;20854;-89
2023/06/03 08:24:12;;;;;;;24.57;1.93;;;15.40;84.30;;;;;;4929465;29;20207;-87
2023/06/03 08:26:39;;;;;;;1.87;1.77;;;15.50;84.20;;;;;;4943363;29;20411;-87
2023/06/03 08:29:08;;;;;;;1.40;1.30;;;15.60;83.90;;;;;;4937763;29;20464;-86
2023/06/03 08:31:33;;;;;;;5.07;2.17;;;15.70;83.90;;;;;;4929711;29;20444;-86
2023/06/03 08:34:01;;;;;;;2.70;1.53;;;15.70;84.10;;;;;;4933208;29;20930;-85
2023/06/03 08:36:26;;;;;;;1.47;1.37;;;15.90;83.90;;;;;;4927495;29;20817;-87
2023/06/03 08:38:52;;;;;;;1.63;1.30;;;15.90;84.20;;;;;;4932272;29;20427;-87
2023/06/03 08:41:18;;;;;;;1.93;1.83;;;16.00;83.60;;;;;;4933253;29;20290;-87
2023/06/03 08:43:53;;;;;;;2.00;1.93;;;16.10;83.90;;;;;;4925489;29;20710;-86
2023/06/03 08:46:40;;;;;;;1.20;1.10;;;16.30;83.50;;;;;;4935938;29;20212;-88
2023/06/03 08:49:11;;;;;;;1.67;1.07;;;16.50;83.10;;;;;;4925947;29;20472;-85
2023/06/03 08:51:43;;;;;;;2.10;1.73;;;16.60;82.90;;;;;;4926333;29;21026;-85
2023/06/03 08:54:13;;;;;;;1.67;1.57;;;16.80;83.60;;;;;;4927424;29;20423;-86
2023/06/03 08:56:48;;;;;;;1.37;1.37;;;17.00;82.70;;;;;;4926126;29;20415;-88
2023/06/03 08:59:23;;;;;;;2.40;1.83;;;17.10;82.00;;;;;;4929692;29;20428;-88
2023/06/03 09:01:55;;;;;;;3.00;2.00;;;17.20;79.90;;;;;;4923645;29;20483;-87
2023/06/03 09:04:21;;;;;;;1.17;1.17;;;17.20;79.60;;;;;;4919117;29;20436;-86
2023/06/03 09:06:49;;;;;;;3.50;1.97;;;17.20;79.90;;;;;;4928391;29;21014;-86
2023/06/03 09:09:15;;;;;;;1.17;1.10;;;17.30;79.90;;;;;;4928579;29;20464;-85
2023/06/03 09:11:42;;;;;;;1.30;1.20;;;17.30;79.20;;;;;;4922249;29;20507;-86
2023/06/03 09:14:12;;;;;;;1.97;1.40;;;17.40;79.10;;;;;;4930851;29;20451;-88
2023/06/03 09:16:38;;;;;;;1.47;1.20;;;17.60;79.60;;;;;;4926236;29;20435;-90
2023/06/03 09:19:04;;;;;;;1.33;1.30;;;17.70;75.90;;;;;;4930095;29;20440;-88
2023/06/03 09:21:29;;;;;;;1.47;1.30;;;17.80;76.20;;;;;;4919776;29;20458;-88
2023/06/03 09:23:55;;;;;;;1.00;0.90;;;17.80;76.10;;;;;;4930646;29;20282;-88
2023/06/03 09:26:21;;;;;;;2.67;2.30;;;17.90;76.60;;;;;;4931622;29;20206;-89
2023/06/03 09:28:47;;;;;;;1.23;1.20;;;18.00;76.10;;;;;;4921137;29;20240;-89
2023/06/03 09:31:13;;;;;;;1.20;1.10;;;18.10;76.20;;;;;;4934785;29;20238;-90
2023/06/03 09:33:40;;;;;;;2.97;1.57;;;18.20;75.20;;;;;;4924161;29;20467;-88
2023/06/03 09:36:13;;;;;;;2.37;2.23;;;18.30;75.10;;;;;;4929875;29;20616;-88
2023/06/03 09:38:54;;;;;;;1.33;1.33;;;18.30;75.30;;;;;;4934939;29;20432;-89
2023/06/03 09:41:22;;;;;;;0.90;0.80;;;18.40;74.50;;;;;;4932064;29;20993;-88
2023/06/03 09:44:01;;;;;;;1.10;1.00;;;18.40;74.10;;;;;;4922246;29;20429;-88
2023/06/03 09:46:29;;;;;;;1.20;1.10;;;18.50;72.90;;;;;;4921962;29;20456;-90
2023/06/03 09:49:10;;;;;;;1.33;1.23;;;18.50;72.60;;;;;;4929027;29;20450;-90
2023/06/03 09:51:40;;;;;;;1.17;1.03;;;18.50;71.60;;;;;;4927370;29;20444;-91
2023/06/03 09:54:11;;;;;;;1.67;1.27;;;18.60;72.10;;;;;;4925492;29;20419;-87
2023/06/03 09:56:37;;;;;;;1.83;1.73;;;18.80;73.10;;;;;;4943710;29;20420;-88
2023/06/03 09:59:42;;;;;;;1.63;0.90;;;18.90;72.30;;;;;;4934383;29;20435;-89
2023/06/03 10:02:11;;;;;;;16.87;2.63;;;19.10;71.10;;;;;;4876138;29;20229;-88
2023/06/03 10:04:41;;;;;;;0.97;0.90;;;19.20;69.10;;;;;;4859855;29;20429;-88
2023/06/03 10:07:10;;;;;;;0.80;0.80;;;19.20;69.80;;;;;;4891665;29;20448;-89
2023/06/03 10:09:41;;;;;;;1.20;1.00;;;19.20;71.20;;;;;;4924571;29;20463;-87
2023/06/03 10:12:10;;;;;;;2.57;1.00;;;19.40;71.90;;;;;;4923104;29;20436;-86
2023/06/03 10:18:11;;;;;;;0.97;0.87;;;19.50;70.80;;;;;;4924766;29;20447;-87
2023/06/03 10:20:38;;;;;;;1.20;1.10;;;19.50;70.60;;;;;;4919421;29;20427;-89
2023/06/03 10:23:10;;;;;;;0.83;0.77;;;19.70;70.40;;;;;;4922135;29;20454;-89
2023/06/03 10:25:46;;;;;;;1.00;0.90;;;19.80;67.20;;;;;;4923957;29;20939;-90
2023/06/03 10:28:13;;;;;;;1.37;1.13;;;19.80;67.60;;;;;;4928997;29;20471;-88
2023/06/03 10:30:40;;;;;;;2.33;1.30;;;19.80;68.40;;;;;;4926831;29;20446;-88
2023/06/03 10:33:08;;;;;;;1.23;0.90;;;19.90;68.90;;;;;;4924036;29;20934;-88
2023/06/03 10:35:36;;;;;;;3.63;1.13;;;20.00;67.80;;;;;;4929327;29;20431;-86
2023/06/03 10:38:04;;;;;;;1.40;1.30;;;20.10;67.40;;;;;;4923717;29;20424;-91
2023/06/03 10:40:30;;;;;;;1.37;1.03;;;20.10;68.10;;;;;;4931080;29;20420;-88
2023/06/03 10:42:56;;;;;;;0.90;0.90;;;20.20;67.60;;;;;;4932743;29;20475;-90
2023/06/03 10:45:23;;;;;;;1.17;1.10;;;20.20;66.70;;;;;;4929919;29;20428;-91
2023/06/03 10:47:50;;;;;;;1.53;1.43;;;20.30;67.30;;;;;;4928316;29;20504;-91
2023/06/03 10:50:36;;;;;;;1.10;1.00;;;20.30;66.20;;;;;;4929707;29;20479;-90
2023/06/03 10:53:05;;;;;;;1.13;1.10;;;20.40;66.70;;;;;;4934298;29;20494;-88
2023/06/03 10:56:05;;;;;;;1.23;1.00;;;20.40;65.40;;;;;;4934075;29;20419;-90
2023/06/03 10:58:31;;;;;;;1.53;1.30;;;20.50;66.60;;;;;;4916940;29;20432;-90
2023/06/03 11:00:58;;;;;;;1.50;1.30;;;20.60;67.50;;;;;;4929075;29;21001;-88
2023/06/03 11:03:55;;;;;;;1.73;1.53;;;20.70;67.10;;;;;;4920117;29;20424;-89
2023/06/03 11:06:26;;;;;;;2.03;1.00;;;20.80;66.40;;;;;;4930524;29;20835;-86
2023/06/03 11:09:01;;;;;;;1.07;0.80;;;20.80;65.40;;;;;;4946500;29;20455;-86
2023/06/03 11:11:42;;;;;;;1.13;1.03;;;20.70;65.20;;;;;;4948525;29;20439;-87
2023/06/03 11:14:09;;;;;;;1.73;1.20;;;20.80;66.90;;;;;;4935880;29;20408;-85
2023/06/03 11:16:57;;;;;;;1.43;1.33;;;20.90;65.80;;;;;;4945775;29;20422;-88
2023/06/03 11:19:50;;;;;;;1.50;1.40;;;21.00;67.00;;;;;;4932383;29;20416;-88
2023/06/03 11:22:28;;;;;;;2.10;1.50;;;21.10;65.00;;;;;;4941612;29;20557;-85
2023/06/03 11:24:58;;;;;;;1.10;1.00;;;21.20;65.70;;;;;;4945339;29;20436;-87
2023/06/03 11:27:25;;;;;;;1.00;0.90;;;21.20;65.80;;;;;;4940011;29;20450;-88
2023/06/03 11:29:53;;;;;;;1.03;0.93;;;21.30;64.90;;;;;;4951710;29;20471;-86
2023/06/03 11:32:33;;;;;;;1.20;1.03;;;21.40;65.90;;;;;;4931800;29;20440;-85
2023/06/03 11:35:04;;;;;;;1.10;1.07;;;21.50;67.40;;;;;;4929754;29;20433;-86
2023/06/03 11:37:45;;;;;;;1.23;1.13;;;21.70;66.50;;;;;;4926661;29;20416;-88
2023/06/03 11:40:16;;;;;;;8.00;1.30;;;21.80;65.20;;;;;;4923503;29;20503;-85
2023/06/03 11:42:51;;;;;;;1.13;1.10;;;21.90;64.70;;;;;;4922711;29;20435;-88
2023/06/03 11:45:20;;;;;;;1.27;1.27;;;21.90;66.70;;;;;;4926197;29;20419;-86
2023/06/03 11:47:59;;;;;;;3.77;1.30;;;22.00;64.20;;;;;;4927270;29;20420;-88
2023/06/03 11:50:32;;;;;;;1.90;1.10;;;21.90;63.20;;;;;;4922414;29;20458;-87
2023/06/03 11:52:58;;;;;;;1.23;1.23;;;21.80;63.10;;;;;;4930890;29;20416;-88
2023/06/03 11:55:29;;;;;;;4.07;1.63;;;21.70;64.30;;;;;;4932706;29;20426;-88
2023/06/03 11:58:10;;;;;;;2.10;1.10;;;21.70;64.80;;;;;;4918633;29;20810;-87
2023/06/03 12:00:37;;;;;;;0.90;0.80;;;21.90;64.50;;;;;;4932086;29;20430;-86
2023/06/03 12:03:03;;;;;;;0.93;0.90;;;22.10;64.50;;;;;;4934220;29;20965;-87
2023/06/03 12:05:28;;;;;;;1.43;1.27;;;22.20;63.60;;;;;;4940028;29;20420;-87
2023/06/03 12:07:58;;;;;;;1.00;0.90;;;22.40;64.70;;;;;;4928098;29;20196;-86
2023/06/03 12:10:39;;;;;;;0.80;0.80;;;22.40;62.30;;;;;;4919928;29;20180;-89
2023/06/03 12:13:05;;;;;;;1.53;1.47;;;22.40;62.50;;;;;;4931742;29;20652;-88
2023/06/03 12:15:30;;;;;;;0.83;0.77;;;22.40;63.30;;;;;;4932881;29;20479;-89
2023/06/03 12:18:03;;;;;;;1.07;1.00;;;22.50;63.40;;;;;;4934378;29;20183;-86
2023/06/03 12:20:29;;;;;;;1.40;1.07;;;22.60;65.60;;;;;;4927759;29;20180;-88
2023/06/03 12:23:03;;;;;;;5.80;1.50;;;22.70;63.40;;;;;;4930472;29;20455;-86
2023/06/03 12:25:29;;;;;;;1.83;1.00;;;22.90;64.30;;;;;;4922456;29;20424;-86
2023/06/03 12:27:56;;;;;;;1.90;1.40;;;23.00;64.70;;;;;;4928579;29;20428;-88
2023/06/03 12:30:29;;;;;;;1.73;1.33;;;23.10;65.30;;;;;;4918992;29;20794;-86
2023/06/03 12:32:57;;;;;;;1.10;1.00;;;23.30;63.90;;;;;;4928555;29;20419;-86
2023/06/03 12:35:24;;;;;;;1.23;1.13;;;23.40;62.00;;;;;;4924370;29;20424;-89
2023/06/03 12:38:03;;;;;;;1.43;1.07;;;23.40;62.90;;;;;;4928857;29;20431;-88
2023/06/03 12:40:28;;;;;;;1.97;1.00;;;23.40;61.80;;;;;;4923530;29;20840;-88
2023/06/03 12:42:54;;;;;;;1.20;1.03;;;23.40;62.50;;;;;;4924618;29;20416;-87
2023/06/03 12:45:24;;;;;;;1.43;1.33;;;23.40;61.50;;;;;;4915875;29;20196;-89
2023/06/03 12:47:50;;;;;;;0.93;0.87;;;23.40;61.90;;;;;;4928763;29;20428;-90
2023/06/03 12:50:18;;;;;;;1.57;1.43;;;23.30;61.90;;;;;;4932855;29;20965;-90
2023/06/03 12:52:44;;;;;;;2.03;1.73;;;23.30;61.60;;;;;;4928072;29;20222;-89
2023/06/03 12:55:13;;;;;;;1.20;1.10;;;23.20;60.90;;;;;;4927579;29;20934;-92
2023/06/03 12:57:46;;;;;;;0.97;0.93;;;23.20;62.10;;;;;;4925695;29;20187;-89
2023/06/03 13:00:19;;;;;;;1.77;1.67;;;23.20;60.60;;;;;;4936730;29;20435;-91
2023/06/03 13:02:49;;;;;;;1.43;1.33;;;23.10;61.40;;;;;;4921403;29;20476;-91
2023/06/03 13:05:23;;;;;;;2.17;1.33;;;23.20;62.40;;;;;;4932176;29;20451;-89
2023/06/03 13:07:49;;;;;;;1.43;1.20;;;23.30;61.80;;;;;;4929945;29;20428;-91
2023/06/03 13:10:20;;;;;;;7.53;0.90;;;23.50;62.90;;;;;;4924330;29;20800;-88
2023/06/03 13:12:48;;;;;;;0.93;0.73;;;23.60;63.30;;;;;;4919001;29;20204;-90
2023/06/03 13:15:13;;;;;;;1.43;1.40;;;23.80;62.40;;;;;;4931886;29;20427;-89
2023/06/03 13:17:40;;;;;;;0.90;0.80;;;23.90;61.50;;;;;;4932832;29;20941;-88
2023/06/03 13:20:11;;;;;;;1.00;0.90;;;24.00;61.80;;;;;;4931872;29;20206;-90
2023/06/03 13:22:40;;;;;;;1.00;0.90;;;24.20;61.60;;;;;;4927537;29;20450;-90
2023/06/03 13:25:09;;;;;;;4.63;2.00;;;24.30;60.10;;;;;;4922586;29;20811;-88
2023/06/03 13:27:36;;;;;;;1.30;0.90;;;24.20;59.70;;;;;;4928181;29;20428;-90
2023/06/03 13:30:02;;;;;;;1.00;0.90;;;24.20;60.90;;;;;;4929202;29;20459;-90
2023/06/03 13:32:29;;;;;;;0.97;0.87;;;24.40;60.30;;;;;;4928585;29;20441;-90
2023/06/03 13:35:00;;;;;;;1.10;1.00;;;24.50;61.00;;;;;;4930854;29;20642;-88
2023/06/03 13:37:33;;;;;;;1.00;0.90;;;24.70;59.60;;;;;;4920823;29;20431;-88
2023/06/03 13:40:00;;;;;;;1.67;1.10;;;24.80;60.30;;;;;;4931249;29;20518;-88
2023/06/03 13:42:26;;;;;;;1.30;1.00;;;24.90;60.50;;;;;;4925208;29;21035;-91
2023/06/03 13:44:51;;;;;;;0.70;0.70;;;25.00;60.20;;;;;;4921345;29;20532;-89
2023/06/03 13:47:17;;;;;;;1.00;0.90;;;25.10;58.80;;;;;;4916476;29;20210;-89
2023/06/03 13:49:42;;;;;;;1.10;1.00;;;25.10;59.90;;;;;;4924395;29;20231;-88
2023/06/03 13:52:10;;;;;;;1.73;1.20;;;25.10;59.20;;;;;;4931605;29;20203;-89
2023/06/03 13:54:35;;;;;;;1.30;0.90;;;25.20;57.50;;;;;;4919849;29;20190;-89
2023/06/03 13:57:01;;;;;;;1.00;0.90;;;25.10;58.80;;;;;;4922671;29;20416;-92
2023/06/03 13:59:29;;;;;;;3.13;1.30;;;25.10;58.30;;;;;;4932025;29;20542;-89
2023/06/03 14:01:55;;;;;;;1.77;0.97;;;25.10;58.40;;;;;;4923310;29;20613;-88
2023/06/03 14:04:20;;;;;;;2.13;1.37;;;25.10;57.40;;;;;;4916951;29;20527;-91
2023/06/03 14:06:48;;;;;;;0.83;0.77;;;24.90;56.90;;;;;;4932163;29;20192;-88
2023/06/03 14:09:21;;;;;;;1.70;1.20;;;24.70;57.30;;;;;;4926035;29;20682;-89
2023/06/03 14:11:50;;;;;;;1.33;1.10;;;24.70;58.00;;;;;;4918308;29;20436;-89
2023/06/03 14:14:16;;;;;;;1.27;0.90;;;24.70;58.20;;;;;;4929412;29;20427;-91
2023/06/03 14:16:43;;;;;;;1.10;1.10;;;24.80;58.10;;;;;;4931749;29;20427;-90
2023/06/03 14:19:11;;;;;;;1.03;0.97;;;24.70;56.90;;;;;;4931793;29;20658;-91
2023/06/03 14:21:40;;;;;;;3.00;1.37;;;24.60;56.80;;;;;;4918547;29;20443;-92
2023/06/03 14:24:06;;;;;;;1.17;1.10;;;24.50;56.70;;;;;;4923829;29;20442;-89
2023/06/03 14:26:35;;;;;;;4.23;1.03;;;24.50;57.40;;;;;;4931025;29;20427;-91
2023/06/03 14:29:02;;;;;;;1.77;1.07;;;24.50;57.50;;;;;;4920614;29;20517;-91
2023/06/03 14:31:31;;;;;;;1.00;0.90;;;24.60;56.80;;;;;;4926053;29;20441;-89
2023/06/03 14:33:56;;;;;;;0.93;0.87;;;24.60;56.70;;;;;;4917960;29;20489;-91
2023/06/03 14:36:21;;;;;;;5.07;1.30;;;24.70;56.20;;;;;;4931031;29;20964;-89
2023/06/03 14:38:49;;;;;;;1.40;1.30;;;24.70;56.40;;;;;;4925915;29;20188;-88
2023/06/03 14:41:22;;;;;;;1.00;0.90;;;24.80;57.90;;;;;;4922155;29;20204;-89
2023/06/03 14:43:50;;;;;;;1.33;1.23;;;24.80;54.70;;;;;;4926616;29;20480;-90
2023/06/03 14:46:24;;;;;;;3.80;1.03;;;24.80;56.80;;;;;;4937085;29;20519;-88
2023/06/03 14:48:50;;;;;;;1.00;0.90;;;24.80;56.40;;;;;;4930994;29;20887;-89
2023/06/03 14:51:20;;;;;;;1.30;1.17;;;24.90;57.30;;;;;;4926786;29;20718;-88
2023/06/03 14:53:49;;;;;;;1.00;0.90;;;25.10;56.50;;;;;;4929694;29;20643;-89
2023/06/03 14:56:20;;;;;;;12.27;1.87;;;25.10;55.70;;;;;;4922690;29;20424;-89
2023/06/03 14:58:50;;;;;;;0.90;0.90;;;25.10;56.20;;;;;;4929878;29;20519;-88
2023/06/03 15:01:18;;;;;;;5.53;1.10;;;25.10;55.00;;;;;;4931536;29;20528;-89
2023/06/03 15:03:43;;;;;;;1.50;1.37;;;25.10;56.30;;;;;;4936033;29;20988;-89
2023/06/03 15:06:09;;;;;;;1.93;1.00;;;25.20;58.20;;;;;;4939926;29;20458;-89
2023/06/03 15:08:34;;;;;;;0.93;0.83;;;25.40;56.20;;;;;;4930847;29;20212;-89
2023/06/03 15:11:00;;;;;;;1.20;1.10;;;25.30;55.40;;;;;;4933013;29;20258;-88
2023/06/03 15:13:25;;;;;;;1.00;0.90;;;25.10;55.10;;;;;;4927910;29;20588;-91
2023/06/03 15:15:51;;;;;;;16.33;1.57;;;25.00;55.30;;;;;;4926006;29;20180;-89
2023/06/03 15:18:16;;;;;;;1.63;1.03;;;25.00;57.20;;;;;;4926877;29;20185;-89
2023/06/03 15:20:42;;;;;;;1.53;0.90;;;25.10;56.00;;;;;;4929589;29;20211;-89
2023/06/03 15:23:10;;;;;;;0.93;0.90;;;25.20;56.70;;;;;;4929774;29;20179;-89
2023/06/03 15:25:38;;;;;;;1.47;1.17;;;25.20;55.30;;;;;;4928360;29;20183;-88
2023/06/03 15:28:03;;;;;;;0.90;0.80;;;25.20;56.10;;;;;;4934754;29;20420;-88
2023/06/03 15:30:31;;;;;;;1.10;1.00;;;25.20;56.20;;;;;;4926960;29;20802;-90
2023/06/03 15:32:57;;;;;;;0.90;0.80;;;25.30;57.00;;;;;;4925018;29;20177;-89
2023/06/03 15:35:22;;;;;;;1.00;0.90;;;25.40;57.10;;;;;;4933905;29;20471;-88
2023/06/03 15:37:48;;;;;;;2.00;1.10;;;25.40;55.80;;;;;;4934346;29;20680;-89
2023/06/03 15:40:14;;;;;;;1.57;1.10;;;25.40;56.70;;;;;;4932393;29;20183;-88
2023/06/03 15:42:40;;;;;;;1.33;1.00;;;25.50;56.00;;;;;;4933786;29;20266;-89
2023/06/03 15:45:06;;;;;;;1.27;1.17;;;25.50;54.60;;;;;;4923694;29;20434;-90
2023/06/03 15:47:32;;;;;;;1.10;1.00;;;25.40;55.80;;;;;;4931038;29;20430;-87
2023/06/03 15:50:00;;;;;;;1.63;1.13;;;25.40;56.50;;;;;;4951122;29;20542;-87
2023/06/03 15:52:27;;;;;;;1.30;1.10;;;25.50;54.90;;;;;;4958852;29;20216;-88
2023/06/03 15:54:53;;;;;;;1.37;0.97;;;25.40;54.40;;;;;;4947911;29;20938;-87
2023/06/03 15:57:18;;;;;;;1.23;1.00;;;25.20;55.20;;;;;;4925084;29;20523;-88
2023/06/03 15:59:48;;;;;;;2.50;1.57;;;25.20;55.70;;;;;;4928412;29;20184;-86
2023/06/03 16:02:16;;;;;;;1.40;1.37;;;25.30;55.90;;;;;;4937317;29;20242;-88
2023/06/03 16:04:42;;;;;;;1.43;1.10;;;25.30;54.60;;;;;;4931608;29;20507;-86
2023/06/03 16:07:07;;;;;;;3.30;1.17;;;25.30;55.90;;;;;;4933498;29;20511;-87
2023/06/03 16:09:33;;;;;;;1.13;0.97;;;25.20;55.90;;;;;;4932048;29;20675;-86
2023/06/03 16:11:59;;;;;;;2.40;1.00;;;25.10;54.90;;;;;;4929295;29;20196;-86
2023/06/03 16:14:25;;;;;;;1.00;0.90;;;24.90;55.60;;;;;;4939524;29;20193;-87
2023/06/03 16:16:50;;;;;;;1.07;0.80;;;24.80;56.70;;;;;;4928886;29;20176;-86
2023/06/03 16:19:16;;;;;;;1.20;1.10;;;24.80;56.40;;;;;;4933742;29;20674;-86
2023/06/03 16:21:42;;;;;;;1.07;1.00;;;25.00;57.30;;;;;;4964336;23;21372;-82
2023/06/03 16:24:08;;;;;;;1.43;1.00;;;25.10;58.00;;;;;;4939233;29;20184;-84
2023/06/03 16:26:34;;;;;;;1.47;1.07;;;25.30;57.70;;;;;;4969955;28;20878;-85
2023/06/03 16:29:00;;;;;;;1.80;1.00;;;25.20;55.90;;;;;;4946008;29;21077;-86
2023/06/03 16:31:25;;;;;;;1.53;1.30;;;25.20;56.40;;;;;;4944290;29;20484;-84
2023/06/03 16:33:52;;;;;;;1.30;1.20;;;25.20;56.50;;;;;;4949339;29;20183;-82
2023/06/03 16:36:18;;;;;;;3.80;1.57;;;25.20;56.60;;;;;;4952602;29;20753;-84
2023/06/03 16:38:43;;;;;;;3.43;1.23;;;25.20;56.80;;;;;;4947032;29;20427;-82
2023/06/03 16:41:09;;;;;;;1.03;1.00;;;25.10;56.60;;;;;;4943685;29;20207;-84
2023/06/03 16:43:35;;;;;;;3.77;1.77;;;25.10;56.70;;;;;;4945872;29;20190;-84
2023/06/03 16:46:00;;;;;;;1.80;1.70;;;24.90;55.40;;;;;;4949038;29;20234;-82
2023/06/03 16:48:25;;;;;;;1.23;1.10;;;24.50;55.60;;;;;;4946316;29;20243;-84
2023/06/03 16:50:51;;;;;;;1.37;1.33;;;24.20;55.80;;;;;;4944186;29;20666;-82
2023/06/03 16:53:16;;;;;;;1.20;1.10;;;23.80;56.50;;;;;;4950190;29;20196;-84
2023/06/03 16:55:42;;;;;;;2.37;1.33;;;23.50;57.00;;;;;;4950243;29;20175;-84
2023/06/03 16:58:07;;;;;;;1.10;1.03;;;23.20;57.40;;;;;;4946852;29;20180;-81
2023/06/03 17:00:33;;;;;;;1.53;1.20;;;23.00;57.90;;;;;;4949912;29;20650;-84
2023/06/03 17:02:58;;;;;;;0.90;0.80;;;22.90;58.20;;;;;;4951892;29;20670;-83